sensor_id;sensor_type;location;lat;lon;timestamp;pressure;altitude;pressure_sealevel;temperature;humidity
76519;BME280;67029;51.054;13.798;2023-02-15T00:01:57;101869.66;;;5.67;64.59
76519;BME280;67029;51.054;13.798;2023-02-15T00:04:27;101873.61;;;5.65;64.44
76519;BME280;67029;51.054;13.798;2023-02-15T00:06:57;101872.61;;;5.65;64.64
76519;BME280;67029;51.054;13.798;2023-02-15T00:09:27;101871.59;;;5.65;64.57
76519;BME280;67029;51.054;13.798;2023-02-15T00:11:57;101874.95;;;5.68;64.73
76519;BME280;67029;51.054;13.798;2023-02-15T00:14:27;101874.53;;;5.68;64.58
76519;BME280;67029;51.054;13.798;2023-02-15T00:16:57;101874.77;;;5.67;64.50
76519;BME280;67029;51.054;13.798;2023-02-15T00:19:27;101869.24;;;5.64;64.54
76519;BME280;67029;51.054;13.798;2023-02-15T00:21:57;101867.69;;;5.64;64.52
76519;BME280;67029;51.054;13.798;2023-02-15T00:24:27;101864.16;;;5.63;64.59
76519;BME280;67029;51.054;13.798;2023-02-15T00:26:58;101862.62;;;5.60;64.49
76519;BME280;67029;51.054;13.798;2023-02-15T00:29:28;101862.30;;;5.63;64.54
76519;BME280;67029;51.054;13.798;2023-02-15T00:31:58;101862.02;;;5.59;64.57
76519;BME280;67029;51.054;13.798;2023-02-15T00:34:28;101862.12;;;5.60;64.50
76519;BME280;67029;51.054;13.798;2023-02-15T00:36:58;101860.17;;;5.62;64.64
76519;BME280;67029;51.054;13.798;2023-02-15T00:39:28;101864.50;;;5.63;64.44
76519;BME280;67029;51.054;13.798;2023-02-15T00:41:58;101864.28;;;5.59;64.33
76519;BME280;67029;51.054;13.798;2023-02-15T00:44:28;101859.81;;;5.56;64.50
76519;BME280;67029;51.054;13.798;2023-02-15T00:46:58;101853.62;;;5.50;64.57
76519;BME280;67029;51.054;13.798;2023-02-15T00:49:28;101850.35;;;5.51;64.57
76519;BME280;67029;51.054;13.798;2023-02-15T00:51:58;101848.69;;;5.48;64.63
76519;BME280;67029;51.054;13.798;2023-02-15T00:54:28;101849.77;;;5.51;64.62
76519;BME280;67029;51.054;13.798;2023-02-15T00:56:58;101848.02;;;5.52;64.53
76519;BME280;67029;51.054;13.798;2023-02-15T00:59:28;101843.36;;;5.47;64.51
76519;BME280;67029;51.054;13.798;2023-02-15T01:01:58;101840.42;;;5.47;64.56
76519;BME280;67029;51.054;13.798;2023-02-15T01:04:28;101838.25;;;5.47;64.59
76519;BME280;67029;51.054;13.798;2023-02-15T01:06:58;101836.70;;;5.48;64.49
76519;BME280;67029;51.054;13.798;2023-02-15T01:09:28;101833.56;;;5.45;64.56
76519;BME280;67029;51.054;13.798;2023-02-15T01:11:58;101832.55;;;5.44;64.52
76519;BME280;67029;51.054;13.798;2023-02-15T01:14:28;101832.12;;;5.44;64.49
76519;BME280;67029;51.054;13.798;2023-02-15T01:16:58;101829.77;;;5.36;64.66
76519;BME280;67029;51.054;13.798;2023-02-15T01:19:28;101830.91;;;5.32;65.00
76519;BME280;67029;51.054;13.798;2023-02-15T01:21:58;101834.77;;;5.30;64.74
76519;BME280;67029;51.054;13.798;2023-02-15T01:24:28;101832.67;;;5.29;64.93
76519;BME280;67029;51.054;13.798;2023-02-15T01:26:58;101829.58;;;5.23;65.06
76519;BME280;67029;51.054;13.798;2023-02-15T01:29:28;101834.61;;;5.23;65.10
76519;BME280;67029;51.054;13.798;2023-02-15T01:31:58;101833.03;;;5.21;65.28
76519;BME280;67029;51.054;13.798;2023-02-15T01:34:29;101829.43;;;5.20;65.27
76519;BME280;67029;51.054;13.798;2023-02-15T01:36:59;101826.67;;;5.21;65.26
76519;BME280;67029;51.054;13.798;2023-02-15T01:39:29;101827.66;;;5.17;65.54
76519;BME280;67029;51.054;13.798;2023-02-15T01:41:59;101827.04;;;5.16;65.30
76519;BME280;67029;51.054;13.798;2023-02-15T01:44:49;101813.97;;;5.16;65.37
76519;BME280;67029;51.054;13.798;2023-02-15T01:47:00;101813.28;;;5.16;65.32
76519;BME280;67029;51.054;13.798;2023-02-15T01:49:30;101808.28;;;5.11;65.37
76519;BME280;67029;51.054;13.798;2023-02-15T01:52:00;101801.41;;;5.11;65.40
76519;BME280;67029;51.054;13.798;2023-02-15T01:54:32;101799.91;;;5.09;65.51
76519;BME280;67029;51.054;13.798;2023-02-15T01:57:08;101798.01;;;5.07;65.53
76519;BME280;67029;51.054;13.798;2023-02-15T01:59:33;101786.61;;;5.07;65.80
76519;BME280;67029;51.054;13.798;2023-02-15T02:02:05;101784.38;;;5.03;65.79
76519;BME280;67029;51.054;13.798;2023-02-15T02:04:45;101785.22;;;5.03;65.74
76519;BME280;67029;51.054;13.798;2023-02-15T02:07:06;101780.19;;;5.02;65.78
76519;BME280;67029;51.054;13.798;2023-02-15T02:09:36;101775.16;;;4.98;65.88
76519;BME280;67029;51.054;13.798;2023-02-15T02:12:06;101776.95;;;4.98;65.77
76519;BME280;67029;51.054;13.798;2023-02-15T02:14:36;101769.58;;;5.01;65.85
76519;BME280;67029;51.054;13.798;2023-02-15T02:17:17;101771.79;;;5.00;65.77
76519;BME280;67029;51.054;13.798;2023-02-15T02:19:54;101770.56;;;5.03;65.75
76519;BME280;67029;51.054;13.798;2023-02-15T02:27:32;101768.33;;;4.88;66.09
76519;BME280;67029;51.054;13.798;2023-02-15T02:35:05;101762.96;;;4.91;65.96
76519;BME280;67029;51.054;13.798;2023-02-15T02:37:30;101761.70;;;4.90;65.87
76519;BME280;67029;51.054;13.798;2023-02-15T02:40:12;101759.52;;;4.90;65.95
76519;BME280;67029;51.054;13.798;2023-02-15T02:42:20;101760.53;;;4.94;65.90
76519;BME280;67029;51.054;13.798;2023-02-15T02:44:50;101754.38;;;4.94;66.15
76519;BME280;67029;51.054;13.798;2023-02-15T02:47:23;101756.78;;;4.89;66.18
76519;BME280;67029;51.054;13.798;2023-02-15T02:49:43;101757.33;;;4.85;66.07
76519;BME280;67029;51.054;13.798;2023-02-15T02:52:34;101750.83;;;4.81;66.35
76519;BME280;67029;51.054;13.798;2023-02-15T02:54:43;101748.78;;;4.85;66.35
76519;BME280;67029;51.054;13.798;2023-02-15T02:57:13;101753.45;;;4.84;66.19
76519;BME280;67029;51.054;13.798;2023-02-15T02:59:45;101750.31;;;4.83;66.19
76519;BME280;67029;51.054;13.798;2023-02-15T03:02:17;101744.83;;;4.84;66.26
76519;BME280;67029;51.054;13.798;2023-02-15T03:04:49;101740.94;;;4.83;66.22
76519;BME280;67029;51.054;13.798;2023-02-15T03:07:19;101745.44;;;4.82;66.09
76519;BME280;67029;51.054;13.798;2023-02-15T03:09:49;101749.53;;;4.84;66.20
76519;BME280;67029;51.054;13.798;2023-02-15T03:12:22;101748.72;;;4.90;66.22
76519;BME280;67029;51.054;13.798;2023-02-15T03:14:50;101749.73;;;4.88;66.00
76519;BME280;67029;51.054;13.798;2023-02-15T03:17:18;101749.88;;;4.85;66.04
76519;BME280;67029;51.054;13.798;2023-02-15T03:19:49;101747.11;;;4.85;66.04
76519;BME280;67029;51.054;13.798;2023-02-15T03:22:30;101744.83;;;4.87;65.92
76519;BME280;67029;51.054;13.798;2023-02-15T03:27:22;101743.39;;;4.86;65.83
76519;BME280;67029;51.054;13.798;2023-02-15T03:29:51;101743.72;;;4.75;65.82
76519;BME280;67029;51.054;13.798;2023-02-15T03:32:18;101742.52;;;4.72;66.06
76519;BME280;67029;51.054;13.798;2023-02-15T03:34:49;101746.80;;;4.78;66.03
76519;BME280;67029;51.054;13.798;2023-02-15T03:37:35;101745.62;;;4.77;65.93
76519;BME280;67029;51.054;13.798;2023-02-15T03:39:59;101746.95;;;4.80;65.88
76519;BME280;67029;51.054;13.798;2023-02-15T03:42:31;101748.72;;;4.80;66.05
76519;BME280;67029;51.054;13.798;2023-02-15T03:45:08;101749.41;;;4.79;65.89
76519;BME280;67029;51.054;13.798;2023-02-15T03:47:25;101748.93;;;4.77;65.80
76519;BME280;67029;51.054;13.798;2023-02-15T03:49:54;101749.66;;;4.78;65.85
76519;BME280;67029;51.054;13.798;2023-02-15T03:52:23;101754.25;;;4.80;65.76
76519;BME280;67029;51.054;13.798;2023-02-15T03:54:51;101752.11;;;4.79;65.95
76519;BME280;67029;51.054;13.798;2023-02-15T03:57:25;101746.77;;;4.74;65.76
76519;BME280;67029;51.054;13.798;2023-02-15T03:59:53;101750.36;;;4.74;65.86
76519;BME280;67029;51.054;13.798;2023-02-15T04:02:28;101742.19;;;4.70;65.90
76519;BME280;67029;51.054;13.798;2023-02-15T04:04:53;101747.38;;;4.70;65.92
76519;BME280;67029;51.054;13.798;2023-02-15T04:07:23;101742.95;;;4.71;65.86
76519;BME280;67029;51.054;13.798;2023-02-15T04:09:53;101745.27;;;4.72;65.89
76519;BME280;67029;51.054;13.798;2023-02-15T04:12:23;101738.08;;;4.69;65.85
76519;BME280;67029;51.054;13.798;2023-02-15T04:14:53;101741.42;;;4.69;65.96
76519;BME280;67029;51.054;13.798;2023-02-15T04:17:23;101740.95;;;4.71;65.96
76519;BME280;67029;51.054;13.798;2023-02-15T04:19:53;101743.27;;;4.67;65.85
76519;BME280;67029;51.054;13.798;2023-02-15T04:22:23;101747.01;;;4.67;65.90
76519;BME280;67029;51.054;13.798;2023-02-15T04:24:53;101745.33;;;4.67;65.85
76519;BME280;67029;51.054;13.798;2023-02-15T04:27:23;101743.18;;;4.69;65.88
76519;BME280;67029;51.054;13.798;2023-02-15T04:29:53;101736.98;;;4.70;65.68
76519;BME280;67029;51.054;13.798;2023-02-15T04:32:24;101742.29;;;4.68;65.69
76519;BME280;67029;51.054;13.798;2023-02-15T04:34:53;101740.96;;;4.66;65.60
76519;BME280;67029;51.054;13.798;2023-02-15T04:37:23;101738.51;;;4.67;65.82
76519;BME280;67029;51.054;13.798;2023-02-15T04:39:53;101743.20;;;4.65;65.68
76519;BME280;67029;51.054;13.798;2023-02-15T04:42:24;101739.41;;;4.59;65.73
76519;BME280;67029;51.054;13.798;2023-02-15T04:44:54;101740.58;;;4.59;65.84
76519;BME280;67029;51.054;13.798;2023-02-15T04:47:24;101735.23;;;4.57;65.75
76519;BME280;67029;51.054;13.798;2023-02-15T04:49:54;101728.02;;;4.52;65.88
76519;BME280;67029;51.054;13.798;2023-02-15T04:52:24;101725.95;;;4.50;66.02
76519;BME280;67029;51.054;13.798;2023-02-15T04:54:54;101723.60;;;4.50;65.99
76519;BME280;67029;51.054;13.798;2023-02-15T04:57:24;101724.46;;;4.52;65.93
76519;BME280;67029;51.054;13.798;2023-02-15T04:59:54;101724.22;;;4.41;65.98
76519;BME280;67029;51.054;13.798;2023-02-15T05:02:24;101715.88;;;4.37;66.21
76519;BME280;67029;51.054;13.798;2023-02-15T05:04:54;101715.19;;;4.41;66.54
76519;BME280;67029;51.054;13.798;2023-02-15T05:07:24;101713.34;;;4.43;66.28
76519;BME280;67029;51.054;13.798;2023-02-15T05:09:54;101712.75;;;4.43;66.25
76519;BME280;67029;51.054;13.798;2023-02-15T05:12:24;101712.37;;;4.37;66.30
76519;BME280;67029;51.054;13.798;2023-02-15T05:14:54;101703.94;;;4.38;66.41
76519;BME280;67029;51.054;13.798;2023-02-15T05:17:24;101707.67;;;4.39;66.38
76519;BME280;67029;51.054;13.798;2023-02-15T05:19:54;101704.59;;;4.40;66.60
76519;BME280;67029;51.054;13.798;2023-02-15T05:22:24;101702.23;;;4.39;66.35
76519;BME280;67029;51.054;13.798;2023-02-15T05:24:54;101703.98;;;4.39;66.54
76519;BME280;67029;51.054;13.798;2023-02-15T05:27:25;101708.52;;;4.37;66.30
76519;BME280;67029;51.054;13.798;2023-02-15T05:29:55;101706.35;;;4.37;66.50
76519;BME280;67029;51.054;13.798;2023-02-15T05:32:25;101701.32;;;4.39;66.53
76519;BME280;67029;51.054;13.798;2023-02-15T05:34:55;101703.34;;;4.37;66.41
76519;BME280;67029;51.054;13.798;2023-02-15T05:37:25;101704.81;;;4.26;66.56
76519;BME280;67029;51.054;13.798;2023-02-15T05:39:55;101703.59;;;4.10;66.98
76519;BME280;67029;51.054;13.798;2023-02-15T05:42:25;101705.16;;;4.00;67.55
76519;BME280;67029;51.054;13.798;2023-02-15T05:44:55;101705.31;;;3.85;67.76
76519;BME280;67029;51.054;13.798;2023-02-15T05:47:25;101709.58;;;3.94;67.82
76519;BME280;67029;51.054;13.798;2023-02-15T05:49:55;101708.41;;;4.02;67.51
76519;BME280;67029;51.054;13.798;2023-02-15T05:52:25;101708.69;;;3.93;67.73
76519;BME280;67029;51.054;13.798;2023-02-15T05:54:55;101704.20;;;3.82;68.08
76519;BME280;67029;51.054;13.798;2023-02-15T05:57:25;101705.02;;;3.88;68.02
76519;BME280;67029;51.054;13.798;2023-02-15T05:59:55;101704.28;;;4.01;67.71
76519;BME280;67029;51.054;13.798;2023-02-15T06:02:25;101708.70;;;4.08;67.55
76519;BME280;67029;51.054;13.798;2023-02-15T06:04:55;101709.30;;;4.15;67.34
76519;BME280;67029;51.054;13.798;2023-02-15T06:07:25;101711.27;;;4.12;67.33
76519;BME280;67029;51.054;13.798;2023-02-15T06:09:55;101712.48;;;4.15;67.31
76519;BME280;67029;51.054;13.798;2023-02-15T06:12:25;101711.40;;;4.15;67.45
76519;BME280;67029;51.054;13.798;2023-02-15T06:14:55;101714.13;;;4.08;67.38
76519;BME280;67029;51.054;13.798;2023-02-15T06:17:25;101709.80;;;3.86;67.89
76519;BME280;67029;51.054;13.798;2023-02-15T06:19:55;101710.42;;;3.86;68.00
76519;BME280;67029;51.054;13.798;2023-02-15T06:22:25;101711.07;;;3.82;68.19
76519;BME280;67029;51.054;13.798;2023-02-15T06:24:55;101708.58;;;3.86;68.02
76519;BME280;67029;51.054;13.798;2023-02-15T06:27:25;101707.52;;;3.93;68.23
76519;BME280;67029;51.054;13.798;2023-02-15T06:29:55;101709.20;;;3.89;68.03
76519;BME280;67029;51.054;13.798;2023-02-15T06:32:25;101708.25;;;3.95;67.95
76519;BME280;67029;51.054;13.798;2023-02-15T06:34:55;101702.31;;;3.98;67.84
76519;BME280;67029;51.054;13.798;2023-02-15T06:37:25;101703.21;;;4.01;67.84
76519;BME280;67029;51.054;13.798;2023-02-15T06:39:55;101701.98;;;4.10;67.71
76519;BME280;67029;51.054;13.798;2023-02-15T06:42:25;101699.69;;;4.15;67.47
76519;BME280;67029;51.054;13.798;2023-02-15T06:44:55;101705.02;;;4.03;67.61
76519;BME280;67029;51.054;13.798;2023-02-15T06:47:25;101705.00;;;4.07;67.70
76519;BME280;67029;51.054;13.798;2023-02-15T06:49:55;101703.45;;;4.15;67.49
76519;BME280;67029;51.054;13.798;2023-02-15T06:52:25;101702.56;;;4.14;67.53
76519;BME280;67029;51.054;13.798;2023-02-15T06:54:55;101700.55;;;4.09;67.62
76519;BME280;67029;51.054;13.798;2023-02-15T06:57:25;101701.35;;;4.03;67.72
76519;BME280;67029;51.054;13.798;2023-02-15T06:59:55;101698.67;;;4.08;67.73
76519;BME280;67029;51.054;13.798;2023-02-15T07:02:25;101693.96;;;4.12;67.72
76519;BME280;67029;51.054;13.798;2023-02-15T07:04:55;101691.70;;;4.07;67.86
76519;BME280;67029;51.054;13.798;2023-02-15T07:07:26;101688.02;;;3.97;68.25
76519;BME280;67029;51.054;13.798;2023-02-15T07:09:56;101692.34;;;4.02;68.38
76519;BME280;67029;51.054;13.798;2023-02-15T07:12:26;101690.15;;;4.06;68.22
76519;BME280;67029;51.054;13.798;2023-02-15T07:14:56;101685.76;;;3.98;68.76
76519;BME280;67029;51.054;13.798;2023-02-15T07:17:26;101687.47;;;3.92;69.30
76519;BME280;67029;51.054;13.798;2023-02-15T07:19:56;101683.05;;;4.02;69.05
76519;BME280;67029;51.054;13.798;2023-02-15T07:22:26;101681.04;;;4.04;69.07
76519;BME280;67029;51.054;13.798;2023-02-15T07:24:56;101677.55;;;4.11;68.97
76519;BME280;67029;51.054;13.798;2023-02-15T07:27:26;101672.83;;;4.15;69.10
76519;BME280;67029;51.054;13.798;2023-02-15T07:29:56;101667.39;;;4.18;69.20
76519;BME280;67029;51.054;13.798;2023-02-15T07:32:30;101676.19;;;4.16;69.29
76519;BME280;67029;51.054;13.798;2023-02-15T07:34:57;101672.16;;;4.15;69.38
76519;BME280;67029;51.054;13.798;2023-02-15T07:37:27;101671.02;;;4.14;69.67
76519;BME280;67029;51.054;13.798;2023-02-15T07:39:57;101666.66;;;4.36;69.28
76519;BME280;67029;51.054;13.798;2023-02-15T07:42:27;101659.89;;;4.36;69.24
76519;BME280;67029;51.054;13.798;2023-02-15T07:44:57;101659.41;;;4.44;69.02
76519;BME280;67029;51.054;13.798;2023-02-15T07:47:27;101654.27;;;4.59;68.64
76519;BME280;67029;51.054;13.798;2023-02-15T07:49:57;101653.53;;;4.68;68.09
76519;BME280;67029;51.054;13.798;2023-02-15T07:52:27;101649.33;;;4.70;68.14
76519;BME280;67029;51.054;13.798;2023-02-15T07:54:57;101646.05;;;4.72;67.89
76519;BME280;67029;51.054;13.798;2023-02-15T07:57:28;101642.56;;;4.79;67.79
76519;BME280;67029;51.054;13.798;2023-02-15T07:59:58;101636.10;;;4.94;67.80
76519;BME280;67029;51.054;13.798;2023-02-15T08:02:28;101639.47;;;5.04;67.50
76519;BME280;67029;51.054;13.798;2023-02-15T08:04:58;101634.95;;;5.01;67.05
76519;BME280;67029;51.054;13.798;2023-02-15T08:07:28;101631.98;;;4.97;67.08
76519;BME280;67029;51.054;13.798;2023-02-15T08:09:58;101630.40;;;5.29;66.62
76519;BME280;67029;51.054;13.798;2023-02-15T08:12:28;101628.89;;;5.62;66.53
76519;BME280;67029;51.054;13.798;2023-02-15T08:14:58;101624.19;;;5.87;64.68
76519;BME280;67029;51.054;13.798;2023-02-15T08:17:28;101618.52;;;6.03;64.50
76519;BME280;67029;51.054;13.798;2023-02-15T08:19:58;101612.72;;;6.25;64.09
76519;BME280;67029;51.054;13.798;2023-02-15T08:22:28;101614.08;;;6.65;63.62
76519;BME280;67029;51.054;13.798;2023-02-15T08:24:58;101613.02;;;7.21;61.52
76519;BME280;67029;51.054;13.798;2023-02-15T08:27:28;101615.20;;;7.55;61.29
76519;BME280;67029;51.054;13.798;2023-02-15T08:29:58;101606.34;;;7.66;59.72
76519;BME280;67029;51.054;13.798;2023-02-15T08:32:28;101608.73;;;7.82;60.61
76519;BME280;67029;51.054;13.798;2023-02-15T08:34:58;101602.69;;;8.27;58.71
76519;BME280;67029;51.054;13.798;2023-02-15T08:37:28;101598.30;;;8.68;57.14
76519;BME280;67029;51.054;13.798;2023-02-15T08:39:58;101592.83;;;8.93;56.64
76519;BME280;67029;51.054;13.798;2023-02-15T08:42:28;101595.19;;;9.11;55.70
76519;BME280;67029;51.054;13.798;2023-02-15T08:44:58;101590.41;;;9.43;55.21
76519;BME280;67029;51.054;13.798;2023-02-15T08:47:28;101587.28;;;9.81;55.67
76519;BME280;67029;51.054;13.798;2023-02-15T08:49:58;101585.88;;;10.35;55.05
76519;BME280;67029;51.054;13.798;2023-02-15T08:52:28;101586.28;;;10.82;54.17
76519;BME280;67029;51.054;13.798;2023-02-15T08:54:58;101590.20;;;11.05;52.58
76519;BME280;67029;51.054;13.798;2023-02-15T08:57:28;101597.39;;;11.44;50.87
76519;BME280;67029;51.054;13.798;2023-02-15T08:59:58;101603.87;;;11.65;48.46
76519;BME280;67029;51.054;13.798;2023-02-15T09:02:28;101588.83;;;11.42;49.18
76519;BME280;67029;51.054;13.798;2023-02-15T09:04:58;101592.36;;;11.13;48.50
76519;BME280;67029;51.054;13.798;2023-02-15T09:07:28;101583.67;;;11.49;49.76
76519;BME280;67029;51.054;13.798;2023-02-15T09:09:58;101581.86;;;11.91;48.90
76519;BME280;67029;51.054;13.798;2023-02-15T09:12:29;101588.11;;;12.32;49.15
76519;BME280;67029;51.054;13.798;2023-02-15T09:14:59;101579.19;;;12.60;47.83
76519;BME280;67029;51.054;13.798;2023-02-15T09:17:29;101575.80;;;12.66;45.42
76519;BME280;67029;51.054;13.798;2023-02-15T09:19:59;101579.23;;;12.77;46.85
76519;BME280;67029;51.054;13.798;2023-02-15T09:22:29;101576.77;;;13.24;45.96
76519;BME280;67029;51.054;13.798;2023-02-15T09:24:59;101567.66;;;13.55;45.46
76519;BME280;67029;51.054;13.798;2023-02-15T09:27:29;101573.39;;;13.97;44.46
76519;BME280;67029;51.054;13.798;2023-02-15T09:29:59;101570.55;;;14.38;44.21
76519;BME280;67029;51.054;13.798;2023-02-15T09:32:29;101569.83;;;14.64;43.46
76519;BME280;67029;51.054;13.798;2023-02-15T09:34:59;101559.97;;;14.77;42.03
76519;BME280;67029;51.054;13.798;2023-02-15T09:37:32;101563.27;;;15.14;41.21
76519;BME280;67029;51.054;13.798;2023-02-15T09:40:00;101559.34;;;15.35;42.16
76519;BME280;67029;51.054;13.798;2023-02-15T09:42:47;101557.70;;;15.85;40.79
76519;BME280;67029;51.054;13.798;2023-02-15T09:47:53;101561.15;;;16.14;40.01
76519;BME280;67029;51.054;13.798;2023-02-15T10:00:29;101552.61;;;17.91;37.14
76519;BME280;67029;51.054;13.798;2023-02-15T10:05:26;101551.92;;;18.69;35.80
76519;BME280;67029;51.054;13.798;2023-02-15T10:08:13;101548.27;;;18.62;35.77
76519;BME280;67029;51.054;13.798;2023-02-15T10:17:52;101540.22;;;17.04;36.50
76519;BME280;67029;51.054;13.798;2023-02-15T10:25:24;101530.84;;;18.03;36.52
76519;BME280;67029;51.054;13.798;2023-02-15T10:27:45;101528.49;;;18.60;35.65
76519;BME280;67029;51.054;13.798;2023-02-15T10:30:14;101526.72;;;19.16;34.94
76519;BME280;67029;51.054;13.798;2023-02-15T10:32:59;101522.66;;;19.53;35.01
76519;BME280;67029;51.054;13.798;2023-02-15T10:35:20;101531.21;;;19.64;33.19
76519;BME280;67029;51.054;13.798;2023-02-15T10:45:32;101507.58;;;20.57;31.85
76519;BME280;67029;51.054;13.798;2023-02-15T10:53:22;101499.61;;;21.25;30.72
76519;BME280;67029;51.054;13.798;2023-02-15T10:55:36;101490.16;;;20.94;30.82
76519;BME280;67029;51.054;13.798;2023-02-15T11:00:27;101485.52;;;21.16;30.53
76519;BME280;67029;51.054;13.798;2023-02-15T11:03:19;101489.38;;;21.61;31.32
76519;BME280;67029;51.054;13.798;2023-02-15T11:05:41;101484.19;;;21.96;30.49
76519;BME280;67029;51.054;13.798;2023-02-15T11:07:49;101471.19;;;22.08;29.72
76519;BME280;67029;51.054;13.798;2023-02-15T11:12:48;101462.87;;;22.49;29.41
76519;BME280;67029;51.054;13.798;2023-02-15T11:17:53;101461.50;;;23.01;28.51
76519;BME280;67029;51.054;13.798;2023-02-15T11:20:30;101465.73;;;23.23;27.07
76519;BME280;67029;51.054;13.798;2023-02-15T11:22:51;101468.04;;;23.07;27.49
76519;BME280;67029;51.054;13.798;2023-02-15T11:25:25;101468.23;;;22.99;28.01
76519;BME280;67029;51.054;13.798;2023-02-15T11:27:52;101462.58;;;23.04;27.98
76519;BME280;67029;51.054;13.798;2023-02-15T11:30:38;101460.28;;;22.94;27.21
76519;BME280;67029;51.054;13.798;2023-02-15T11:32:56;101458.55;;;22.41;28.06
76519;BME280;67029;51.054;13.798;2023-02-15T11:35:37;101467.70;;;22.43;28.35
76519;BME280;67029;51.054;13.798;2023-02-15T11:38:14;101463.32;;;22.37;28.35
76519;BME280;67029;51.054;13.798;2023-02-15T11:40:45;101458.07;;;21.64;29.40
76519;BME280;67029;51.054;13.798;2023-02-15T11:43:06;101454.34;;;21.26;29.33
76519;BME280;67029;51.054;13.798;2023-02-15T11:45:30;101439.19;;;21.49;30.14
76519;BME280;67029;51.054;13.798;2023-02-15T11:47:57;101446.22;;;21.96;28.99
76519;BME280;67029;51.054;13.798;2023-02-15T11:50:30;101453.60;;;22.31;28.50
76519;BME280;67029;51.054;13.798;2023-02-15T11:52:58;101451.44;;;22.57;28.31
76519;BME280;67029;51.054;13.798;2023-02-15T11:55:27;101450.28;;;22.60;27.51
76519;BME280;67029;51.054;13.798;2023-02-15T11:58:04;101450.88;;;22.42;27.42
76519;BME280;67029;51.054;13.798;2023-02-15T12:00:35;101445.77;;;22.11;28.63
76519;BME280;67029;51.054;13.798;2023-02-15T12:03:02;101449.84;;;21.98;28.54
76519;BME280;67029;51.054;13.798;2023-02-15T12:05:30;101432.85;;;21.01;28.54
76519;BME280;67029;51.054;13.798;2023-02-15T12:08:25;101439.86;;;20.11;30.21
76519;BME280;67029;51.054;13.798;2023-02-15T12:10:35;101437.77;;;19.95;31.04
76519;BME280;67029;51.054;13.798;2023-02-15T12:13:14;101426.04;;;20.26;30.91
76519;BME280;67029;51.054;13.798;2023-02-15T12:15:31;101426.67;;;20.89;30.18
76519;BME280;67029;51.054;13.798;2023-02-15T12:18:02;101430.81;;;20.93;30.20
76519;BME280;67029;51.054;13.798;2023-02-15T12:20:33;101436.56;;;20.50;30.17
76519;BME280;67029;51.054;13.798;2023-02-15T12:23:13;101424.72;;;20.45;29.65
76519;BME280;67029;51.054;13.798;2023-02-15T12:25:37;101421.36;;;20.45;30.16
76519;BME280;67029;51.054;13.798;2023-02-15T12:28:05;101417.71;;;20.75;29.80
76519;BME280;67029;51.054;13.798;2023-02-15T12:30:35;101406.83;;;20.85;30.09
76519;BME280;67029;51.054;13.798;2023-02-15T12:33:25;101407.75;;;20.76;29.98
76519;BME280;67029;51.054;13.798;2023-02-15T12:35:36;101419.98;;;20.34;29.91
76519;BME280;67029;51.054;13.798;2023-02-15T12:40:36;101401.61;;;20.50;29.97
76519;BME280;67029;51.054;13.798;2023-02-15T12:43:24;101393.34;;;20.40;30.40
76519;BME280;67029;51.054;13.798;2023-02-15T12:45:37;101385.88;;;20.74;29.89
76519;BME280;67029;51.054;13.798;2023-02-15T12:48:18;101389.03;;;20.49;29.41
76519;BME280;67029;51.054;13.798;2023-02-15T12:50:38;101392.73;;;20.24;30.35
76519;BME280;67029;51.054;13.798;2023-02-15T12:53:20;101378.22;;;20.34;29.93
76519;BME280;67029;51.054;13.798;2023-02-15T12:55:57;101377.84;;;19.99;30.34
76519;BME280;67029;51.054;13.798;2023-02-15T12:58:17;101375.66;;;20.07;30.40
76519;BME280;67029;51.054;13.798;2023-02-15T13:00:40;101378.20;;;19.79;30.56
76519;BME280;67029;51.054;13.798;2023-02-15T13:03:23;101373.80;;;19.83;30.33
76519;BME280;67029;51.054;13.798;2023-02-15T13:05:42;101373.82;;;19.80;30.45
76519;BME280;67029;51.054;13.798;2023-02-15T13:08:17;101369.80;;;20.03;30.70
76519;BME280;67029;51.054;13.798;2023-02-15T13:10:57;101367.30;;;20.32;30.45
76519;BME280;67029;51.054;13.798;2023-02-15T13:13:21;101364.27;;;20.82;29.46
76519;BME280;67029;51.054;13.798;2023-02-15T13:15:46;101362.22;;;21.22;29.78
76519;BME280;67029;51.054;13.798;2023-02-15T13:18:29;101360.50;;;21.47;29.07
76519;BME280;67029;51.054;13.798;2023-02-15T13:20:46;101356.14;;;21.40;28.83
76519;BME280;67029;51.054;13.798;2023-02-15T13:23:26;101357.98;;;21.18;29.35
76519;BME280;67029;51.054;13.798;2023-02-15T13:25:47;101368.38;;;21.18;28.61
76519;BME280;67029;51.054;13.798;2023-02-15T13:28:19;101370.77;;;21.11;29.62
76519;BME280;67029;51.054;13.798;2023-02-15T13:30:47;101357.08;;;20.86;29.38
76519;BME280;67029;51.054;13.798;2023-02-15T13:33:26;101380.35;;;20.26;29.04
76519;BME280;67029;51.054;13.798;2023-02-15T13:35:59;101366.08;;;19.67;29.81
76519;BME280;67029;51.054;13.798;2023-02-15T13:38:36;101364.84;;;18.85;31.50
76519;BME280;67029;51.054;13.798;2023-02-15T13:41:09;101363.14;;;19.42;31.47
76519;BME280;67029;51.054;13.798;2023-02-15T13:46:09;101367.56;;;18.83;32.30
76519;BME280;67029;51.054;13.798;2023-02-15T13:55:57;101369.91;;;20.67;29.89
76519;BME280;67029;51.054;13.798;2023-02-15T14:01:22;101367.80;;;20.75;29.48
76519;BME280;67029;51.054;13.798;2023-02-15T14:03:56;101370.07;;;21.02;29.13
76519;BME280;67029;51.054;13.798;2023-02-15T14:06:08;101370.47;;;21.30;28.99
76519;BME280;67029;51.054;13.798;2023-02-15T14:08:54;101366.23;;;21.62;28.20
76519;BME280;67029;51.054;13.798;2023-02-15T14:11:00;101368.53;;;21.57;27.83
76519;BME280;67029;51.054;13.798;2023-02-15T14:16:03;101370.70;;;20.93;28.77
76519;BME280;67029;51.054;13.798;2023-02-15T14:18:44;101371.52;;;20.70;29.41